createdAt,value
2019-04-04T16:08:47.927Z,228.53
2019-04-04T16:11:16.154Z,217.80
2019-04-04T16:13:44.659Z,241.43
2019-04-04T16:16:13.207Z,240.07
2019-04-04T16:18:41.716Z,246.43
2019-04-04T16:21:10.284Z,245.57
2019-04-04T16:23:38.907Z,258.67
2019-04-04T16:26:07.409Z,191.33
2019-04-04T16:28:35.970Z,265.27
2019-04-04T16:31:04.691Z,252.43
2019-04-04T16:33:33.111Z,264.50
2019-04-04T16:36:01.546Z,263.77
2019-04-04T16:38:30.091Z,257.83
2019-04-04T16:41:00.373Z,266.93
2019-04-04T16:43:28.785Z,250.00
2019-04-04T16:45:57.505Z,262.23
2019-04-04T16:48:25.971Z,251.97
2019-04-04T16:50:54.456Z,251.77
2019-04-04T16:53:23.002Z,162.33
2019-04-04T16:55:51.570Z,254.77
2019-04-04T16:58:20.135Z,219.77
2019-04-04T17:00:48.765Z,23.73
2019-04-04T17:03:17.240Z,22.90
2019-04-04T17:05:45.802Z,24.30
2019-04-04T17:08:14.450Z,34.77
2019-04-04T17:10:42.943Z,33.20
2019-04-04T17:13:11.437Z,33.00
2019-04-04T17:15:40.046Z,30.93
2019-04-04T17:18:08.607Z,28.57
2019-04-04T17:20:37.169Z,26.77
2019-04-04T17:23:05.706Z,28.83
2019-04-04T17:25:34.789Z,29.03
2019-04-04T17:28:03.311Z,23.90
2019-04-04T17:30:32.320Z,19.93
2019-04-04T17:33:01.141Z,32.73
2019-04-04T17:35:29.773Z,26.47
2019-04-04T17:37:58.418Z,29.13
2019-04-04T17:40:27.105Z,36.17
2019-04-04T17:42:55.673Z,40.40
2019-04-04T17:45:24.318Z,29.40
2019-04-04T17:47:52.864Z,35.60
2019-04-04T17:50:21.839Z,31.97
2019-04-04T17:52:50.675Z,36.63
2019-04-04T17:55:19.657Z,36.30
2019-04-04T17:57:48.226Z,44.67
2019-04-04T18:00:17.832Z,43.50
2019-04-04T18:02:46.411Z,46.40
2019-04-04T18:05:15.096Z,55.80
2019-04-04T18:07:44.017Z,41.47
2019-04-04T18:10:12.510Z,48.33
2019-04-04T18:12:41.186Z,47.47
2019-04-04T18:15:09.780Z,46.70
2019-04-04T18:17:38.706Z,47.53
2019-04-04T18:20:07.774Z,48.07
2019-04-04T18:22:36.909Z,44.73
2019-04-04T18:25:06.395Z,46.37
2019-04-04T18:27:35.128Z,54.50
2019-04-04T18:30:09.026Z,56.00
2019-04-04T18:32:37.639Z,41.77
2019-04-04T18:35:08.387Z,43.97
2019-04-04T18:37:38.063Z,40.37
2019-04-04T18:40:08.031Z,42.10
2019-04-04T18:42:36.636Z,39.07
2019-04-04T18:45:06.561Z,47.23
2019-04-04T18:47:35.219Z,39.07
2019-04-04T18:50:04.658Z,47.07
2019-04-04T18:52:33.563Z,48.97
2019-04-04T18:55:02.252Z,48.50
2019-04-04T18:57:30.778Z,47.50
2019-04-04T18:59:59.853Z,45.90
2019-04-04T19:02:28.507Z,38.23
2019-04-04T19:04:57.060Z,48.03
2019-04-04T19:07:25.679Z,40.80
2019-04-04T19:09:54.326Z,40.43
2019-04-04T19:12:24.195Z,46.97
2019-04-04T19:14:52.877Z,43.10
2019-04-04T19:17:21.583Z,54.43
2019-04-04T19:19:50.667Z,39.97
2019-04-04T19:22:19.599Z,47.27
2019-04-04T19:24:48.270Z,46.77
2019-04-04T19:27:17.101Z,48.63
2019-04-04T19:29:45.761Z,43.10
2019-04-04T19:32:14.740Z,39.40
2019-04-04T19:34:43.778Z,45.63
2019-04-04T19:37:12.652Z,47.13
2019-04-04T19:39:41.205Z,40.33
2019-04-04T19:42:10.980Z,43.10
2019-04-04T19:44:52.194Z,42.43
2019-04-04T19:47:09.970Z,45.13
2019-04-04T19:49:38.605Z,57.13
2019-04-04T19:52:07.194Z,55.10
2019-04-04T19:54:36.022Z,49.10
2019-04-04T19:57:04.686Z,54.10
2019-04-04T19:59:33.381Z,54.83
2019-04-04T20:02:01.949Z,49.03
2019-04-04T20:04:30.493Z,47.90
2019-04-04T20:06:59.173Z,46.60
2019-04-04T20:09:27.749Z,49.97
2019-04-04T20:11:56.256Z,51.10
2019-04-04T20:14:28.628Z,52.77
2019-04-04T20:16:55.175Z,53.50
2019-04-04T20:19:25.312Z,49.97
2019-04-04T20:21:56.397Z,50.17
2019-04-04T20:24:24.086Z,47.87
2019-04-04T20:26:52.629Z,44.53
2019-04-04T20:29:21.267Z,44.67
2019-04-04T20:31:49.762Z,46.77
2019-04-04T20:34:18.466Z,42.53
2019-04-04T20:36:47.528Z,35.70
2019-04-04T20:39:16.087Z,42.13
2019-04-04T20:41:44.712Z,46.30
2019-04-04T20:44:14.902Z,49.37
2019-04-04T20:46:43.470Z,48.10
2019-04-04T20:49:12.041Z,47.03
2019-04-04T20:51:40.669Z,48.57
2019-04-04T20:54:09.251Z,52.77
2019-04-04T20:56:39.318Z,52.80
2019-04-04T20:59:07.931Z,46.87
2019-04-04T21:01:36.500Z,51.70
2019-04-04T21:04:05.002Z,47.60
2019-04-04T21:06:33.638Z,52.23
2019-04-04T21:09:02.183Z,43.70
2019-04-04T21:11:30.826Z,48.60
2019-04-04T21:13:59.654Z,49.47
2019-04-04T21:16:28.212Z,56.97
2019-04-04T21:18:56.768Z,51.00
2019-04-04T21:21:25.398Z,51.03
2019-04-04T21:23:53.949Z,46.10
2019-04-04T21:26:22.470Z,66.17
2019-04-04T21:28:51.371Z,45.40
2019-04-04T21:31:19.995Z,49.33
2019-04-04T21:33:48.758Z,43.33
2019-04-04T21:36:17.306Z,48.57
2019-04-04T21:38:45.947Z,62.53
2019-04-04T21:41:14.437Z,49.00
2019-04-04T21:43:42.986Z,46.30
2019-04-04T21:46:11.657Z,45.43
2019-04-04T21:48:40.314Z,70.20
2019-04-04T21:51:09.009Z,50.23
2019-04-04T21:53:37.654Z,53.53
2019-04-04T21:56:06.154Z,59.90
2019-04-04T21:58:34.790Z,54.00
2019-04-04T22:01:03.440Z,47.50
2019-04-04T22:03:32.307Z,48.20
2019-04-04T22:06:01.468Z,53.50
2019-04-04T22:08:30.410Z,50.27
2019-04-04T22:10:58.890Z,44.60
2019-04-04T22:13:27.516Z,44.43
2019-04-04T22:15:56.004Z,56.20
2019-04-04T22:18:24.576Z,46.33
2019-04-04T22:20:53.120Z,43.47
2019-04-04T22:23:21.626Z,43.90
2019-04-04T22:25:50.139Z,42.60
2019-04-04T22:28:18.855Z,44.83
2019-04-04T22:30:47.322Z,40.80
2019-04-04T22:33:15.878Z,43.90
2019-04-04T22:35:44.426Z,48.90
2019-04-04T22:38:12.917Z,43.63
2019-04-04T22:40:41.497Z,44.70
2019-04-04T22:43:10.178Z,53.80
2019-04-04T22:45:38.740Z,45.83
2019-04-04T22:48:07.146Z,48.87
2019-04-04T22:50:35.771Z,47.53
2019-04-04T22:53:04.256Z,41.97
2019-04-04T22:55:32.823Z,42.80
2019-04-04T22:58:01.293Z,43.97
2019-04-04T23:00:29.847Z,46.47
2019-04-04T23:02:59.516Z,41.33
2019-04-04T23:05:28.070Z,47.17
2019-04-04T23:07:56.787Z,41.13
2019-04-04T23:10:25.194Z,44.03
2019-04-04T23:12:53.669Z,42.07
2019-04-04T23:15:22.182Z,49.00
2019-04-04T23:17:50.735Z,37.60
2019-04-04T23:20:19.220Z,48.07
2019-04-04T23:22:52.913Z,43.03
2019-04-04T23:25:18.441Z,40.80
2019-04-04T23:27:46.922Z,43.37
2019-04-04T23:30:17.029Z,46.93
2019-04-04T23:32:45.507Z,41.57
2019-04-04T23:35:16.476Z,47.17
2019-04-04T23:37:44.101Z,49.70
2019-04-04T23:40:15.406Z,47.63
2019-04-04T23:42:43.891Z,40.83
2019-04-04T23:45:12.455Z,47.47
2019-04-04T23:47:43.171Z,45.13
2019-04-04T23:50:11.137Z,40.10
2019-04-04T23:52:39.550Z,43.23
2019-04-04T23:55:08.205Z,42.80
2019-04-04T23:57:36.688Z,44.20
